Time;durP1;ratioP1;P1;durP2;ratioP2;P2;SDS_P1;SDS_P2;PMS_P1;PMS_P2;Temp;Humidity;BMP_temperature;BMP_pressure;BME280_temperature;BME280_humidity;BME280_pressure;Samples;Min_cycle;Max_cycle;Signal;HPM_P1;HPM_P2
2022/04/06 00:00:47;;;;;;;7.43;6.83;;;;;;;;;;5073619;28;20543;-77
2022/04/06 00:03:14;;;;;;;7.67;7.13;;;;;;;;;;5074019;28;20444;-77
2022/04/06 00:05:42;;;;;;;7.70;7.00;;;;;;;;;;5080369;28;20512;-76
2022/04/06 00:08:10;;;;;;;7.47;6.87;;;;;;;;;;5093459;28;20475;-77
2022/04/06 00:10:37;;;;;;;7.60;7.00;;;;;;;;;;5092891;28;20933;-77
2022/04/06 00:13:04;;;;;;;8.13;7.40;;;;;;;;;;5092900;28;20463;-76
2022/04/06 00:15:31;;;;;;;7.67;7.17;;;;;;;;;;5093110;28;20474;-77
2022/04/06 00:17:58;;;;;;;7.50;6.80;;;;;;;;;;5092871;28;20479;-76
2022/04/06 00:20:25;;;;;;;8.60;7.70;;;;;;;;;;5093870;28;20896;-77
2022/04/06 00:22:52;;;;;;;7.43;6.87;;;;;;;;;;5094822;28;20444;-77
2022/04/06 00:25:20;;;;;;;8.20;7.50;;;;;;;;;;5095616;28;20468;-77
2022/04/06 00:27:47;;;;;;;8.20;7.40;;;;;;;;;;5095339;28;20918;-77
2022/04/06 00:30:14;;;;;;;7.77;7.07;;;;;;;;;;5095695;28;20451;-76
2022/04/06 00:32:42;;;;;;;7.53;6.93;;;;;;;;;;5096466;28;20448;-77
2022/04/06 00:37:54;;;;;;;7.47;6.77;;;;;;;;;;5091279;28;20477;-77
2022/04/06 00:40:22;;;;;;;7.53;6.83;;;;;;;;;;5075021;28;20498;-79
2022/04/06 00:42:49;;;;;;;7.13;6.63;;;;;;;;;;5072484;28;20496;-77
2022/04/06 00:45:16;;;;;;;8.33;6.87;;;;;;;;;;5082218;28;20471;-76
2022/04/06 00:47:44;;;;;;;7.27;6.60;;;;;;;;;;5089309;28;20831;-75
2022/04/06 00:50:11;;;;;;;7.20;6.67;;;;;;;;;;5099786;28;20455;-77
2022/04/06 00:52:39;;;;;;;7.10;6.50;;;;;;;;;;5092021;28;20436;-77
2022/04/06 00:55:06;;;;;;;7.07;6.43;;;;;;;;;;5093550;28;20459;-77
2022/04/06 00:57:35;;;;;;;7.30;6.80;;;;;;;;;;5092445;28;20479;-79
2022/04/06 01:00:05;;;;;;;7.10;6.40;;;;;;;;;;5092399;28;20447;-78
2022/04/06 01:02:33;;;;;;;7.60;7.00;;;;;;;;;;5092655;28;20463;-77
2022/04/06 01:05:00;;;;;;;7.00;6.50;;;;;;;;;;5092114;28;20831;-77
2022/04/06 01:07:27;;;;;;;7.13;6.57;;;;;;;;;;5091846;28;20939;-76
2022/04/06 01:09:54;;;;;;;7.20;6.50;;;;;;;;;;5093146;28;20495;-77
2022/04/06 01:12:23;;;;;;;6.80;6.20;;;;;;;;;;5093582;28;20448;-77
2022/04/06 01:14:51;;;;;;;7.43;6.90;;;;;;;;;;5093353;28;20998;-77
2022/04/06 01:17:18;;;;;;;7.17;6.60;;;;;;;;;;5091680;28;20475;-78
2022/04/06 01:19:47;;;;;;;7.50;6.80;;;;;;;;;;5094117;28;20462;-76
2022/04/06 01:22:16;;;;;;;6.87;6.37;;;;;;;;;;5094375;28;20516;-77
2022/04/06 01:24:44;;;;;;;6.90;6.40;;;;;;;;;;5093699;28;20485;-76
2022/04/06 01:27:11;;;;;;;6.67;6.07;;;;;;;;;;5091948;28;20500;-77
2022/04/06 01:29:40;;;;;;;7.07;6.47;;;;;;;;;;5092014;28;20444;-78
2022/04/06 01:32:10;;;;;;;7.03;6.43;;;;;;;;;;5091822;28;20454;-77
2022/04/06 01:34:37;;;;;;;7.30;6.80;;;;;;;;;;5091660;28;20546;-77
2022/04/06 01:37:05;;;;;;;6.90;6.30;;;;;;;;;;5091597;28;20880;-78
2022/04/06 01:39:34;;;;;;;6.60;6.10;;;;;;;;;;5091814;28;20447;-76
2022/04/06 01:42:01;;;;;;;7.10;6.50;;;;;;;;;;5092102;28;20443;-78
2022/04/06 01:44:28;;;;;;;7.50;6.90;;;;;;;;;;5092298;28;20467;-77
2022/04/06 01:46:55;;;;;;;7.23;6.73;;;;;;;;;;5092682;28;20450;-78
2022/04/06 01:52:14;;;;;;;6.47;6.00;;;;;;;;;;5092290;28;20411;-77
2022/04/06 01:54:43;;;;;;;6.20;5.60;;;;;;;;;;5091692;28;20468;-77
2022/04/06 01:57:10;;;;;;;7.10;6.60;;;;;;;;;;5091898;28;20515;-78
2022/04/06 01:59:38;;;;;;;7.27;6.77;;;;;;;;;;5092017;28;20817;-78
2022/04/06 02:02:05;;;;;;;6.30;5.90;;;;;;;;;;5091574;28;20496;-77
2022/04/06 02:04:32;;;;;;;5.83;5.43;;;;;;;;;;5091397;28;20492;-77
2022/04/06 02:06:59;;;;;;;6.57;6.07;;;;;;;;;;5091321;28;20443;-78
2022/04/06 02:09:26;;;;;;;6.33;5.83;;;;;;;;;;5091383;28;20466;-78
2022/04/06 02:11:55;;;;;;;8.33;6.73;;;;;;;;;;5091331;28;20501;-77
2022/04/06 02:14:22;;;;;;;6.67;6.17;;;;;;;;;;5091160;28;20468;-78
2022/04/06 02:16:49;;;;;;;6.97;6.37;;;;;;;;;;5090940;28;20448;-77
2022/04/06 02:19:16;;;;;;;7.53;6.93;;;;;;;;;;5091268;28;20446;-78
2022/04/06 02:21:43;;;;;;;7.70;7.00;;;;;;;;;;5091684;28;20455;-77
2022/04/06 02:24:10;;;;;;;7.00;6.50;;;;;;;;;;5092814;28;20468;-77
2022/04/06 02:26:37;;;;;;;7.10;6.60;;;;;;;;;;5091065;28;20652;-77
2022/04/06 02:29:05;;;;;;;6.70;6.20;;;;;;;;;;5091010;28;20938;-78
2022/04/06 02:31:34;;;;;;;6.80;6.30;;;;;;;;;;5090838;28;20472;-77
2022/04/06 02:34:01;;;;;;;9.43;6.60;;;;;;;;;;5094661;28;20544;-77
2022/04/06 02:36:28;;;;;;;6.67;6.07;;;;;;;;;;5095521;28;20523;-78
2022/04/06 02:38:55;;;;;;;6.87;6.30;;;;;;;;;;5095296;28;20486;-76
2022/04/06 02:41:22;;;;;;;7.07;6.47;;;;;;;;;;5095205;28;20952;-77
2022/04/06 02:43:49;;;;;;;8.33;6.23;;;;;;;;;;5094963;28;20967;-78
2022/04/06 02:46:18;;;;;;;6.47;5.97;;;;;;;;;;5095694;28;20447;-78
2022/04/06 02:48:45;;;;;;;6.40;5.90;;;;;;;;;;5095800;28;20435;-78
2022/04/06 02:51:12;;;;;;;7.13;6.43;;;;;;;;;;5094980;28;20474;-77
2022/04/06 02:53:39;;;;;;;6.50;5.90;;;;;;;;;;5094510;28;20509;-75
2022/04/06 02:56:06;;;;;;;5.90;5.40;;;;;;;;;;5095827;28;20452;-78
2022/04/06 02:58:33;;;;;;;5.93;5.53;;;;;;;;;;5094468;28;20471;-77
2022/04/06 03:01:00;;;;;;;6.23;5.73;;;;;;;;;;5094872;28;20447;-79
2022/04/06 03:03:29;;;;;;;6.63;6.07;;;;;;;;;;5094526;28;20446;-77
2022/04/06 03:05:56;;;;;;;7.43;5.50;;;;;;;;;;5095181;28;20492;-77
2022/04/06 03:08:23;;;;;;;6.30;5.80;;;;;;;;;;5095353;28;20443;-77
2022/04/06 03:10:50;;;;;;;6.13;5.67;;;;;;;;;;5095819;28;20526;-77
2022/04/06 03:13:17;;;;;;;6.00;5.60;;;;;;;;;;5094523;28;20461;-78
2022/04/06 03:15:44;;;;;;;6.10;5.60;;;;;;;;;;5094544;28;20444;-76
2022/04/06 03:18:11;;;;;;;6.47;6.00;;;;;;;;;;5094216;28;20478;-77
2022/04/06 03:20:39;;;;;;;6.83;6.20;;;;;;;;;;5094600;28;20435;-76
2022/04/06 03:23:06;;;;;;;8.80;6.17;;;;;;;;;;5093873;28;20500;-77
2022/04/06 03:25:33;;;;;;;6.07;5.50;;;;;;;;;;5094204;28;20463;-79
2022/04/06 03:28:01;;;;;;;6.00;5.60;;;;;;;;;;5094394;28;21008;-78
2022/04/06 03:30:28;;;;;;;6.53;5.93;;;;;;;;;;5094152;28;20462;-77
2022/04/06 03:32:55;;;;;;;6.17;5.67;;;;;;;;;;5094094;28;20520;-77
2022/04/06 03:35:22;;;;;;;6.30;5.90;;;;;;;;;;5094222;28;20890;-78
2022/04/06 03:37:51;;;;;;;7.47;5.40;;;;;;;;;;5093771;28;20481;-76
2022/04/06 03:40:18;;;;;;;7.33;6.10;;;;;;;;;;5086561;28;20709;-77
2022/04/06 03:42:45;;;;;;;5.83;5.43;;;;;;;;;;5093861;28;20549;-75
2022/04/06 03:45:12;;;;;;;6.93;6.40;;;;;;;;;;5093712;28;20459;-78
2022/04/06 03:47:42;;;;;;;7.87;5.73;;;;;;;;;;5086210;28;20442;-76
2022/04/06 03:50:09;;;;;;;6.73;6.07;;;;;;;;;;5095236;28;20443;-77
2022/04/06 03:52:36;;;;;;;6.57;5.97;;;;;;;;;;5096064;28;20448;-79
2022/04/06 03:55:05;;;;;;;7.00;6.30;;;;;;;;;;5094262;28;20463;-79
2022/04/06 03:57:33;;;;;;;7.17;6.60;;;;;;;;;;5093753;28;20475;-77
2022/04/06 04:00:00;;;;;;;8.17;7.47;;;;;;;;;;5093586;28;20432;-77
2022/04/06 04:02:27;;;;;;;7.07;6.57;;;;;;;;;;5093822;28;20451;-77
2022/04/06 04:04:54;;;;;;;8.43;6.43;;;;;;;;;;5093662;28;20513;-79
2022/04/06 04:07:21;;;;;;;7.00;6.50;;;;;;;;;;5094063;28;20444;-78
2022/04/06 04:09:49;;;;;;;9.70;7.20;;;;;;;;;;5093101;28;20522;-76
2022/04/06 04:12:17;;;;;;;8.23;7.50;;;;;;;;;;5085072;28;20440;-77
2022/04/06 04:14:45;;;;;;;9.27;7.50;;;;;;;;;;5092882;28;20479;-78
2022/04/06 04:17:12;;;;;;;7.80;7.10;;;;;;;;;;5078162;28;20440;-77
2022/04/06 04:19:39;;;;;;;7.73;7.13;;;;;;;;;;5084550;28;20529;-77
2022/04/06 04:22:06;;;;;;;7.73;6.93;;;;;;;;;;5087021;28;20463;-78
2022/04/06 04:24:34;;;;;;;7.17;6.67;;;;;;;;;;5089853;28;20471;-78
2022/04/06 04:27:01;;;;;;;7.53;6.93;;;;;;;;;;5072895;28;20441;-77
2022/04/06 04:29:29;;;;;;;7.40;6.70;;;;;;;;;;5072892;28;20479;-79
2022/04/06 04:31:56;;;;;;;7.17;6.67;;;;;;;;;;5072724;28;20459;-77
2022/04/06 04:34:23;;;;;;;7.43;6.63;;;;;;;;;;5073086;28;20464;-77
2022/04/06 04:36:50;;;;;;;7.57;6.97;;;;;;;;;;5072913;28;20497;-79
2022/04/06 04:39:18;;;;;;;7.43;6.83;;;;;;;;;;5072779;28;20472;-79
2022/04/06 04:41:45;;;;;;;6.20;5.80;;;;;;;;;;5082918;28;20465;-76
2022/04/06 04:44:12;;;;;;;7.13;6.50;;;;;;;;;;5098398;28;20467;-78
2022/04/06 04:46:41;;;;;;;6.63;6.13;;;;;;;;;;5102288;28;20459;-77
2022/04/06 04:49:08;;;;;;;5.93;5.43;;;;;;;;;;5111392;28;20451;-76
2022/04/06 04:51:35;;;;;;;6.10;5.60;;;;;;;;;;5107035;28;20812;-78
2022/04/06 04:54:02;;;;;;;6.57;5.97;;;;;;;;;;5093171;28;20467;-77
2022/04/06 04:56:30;;;;;;;6.20;5.70;;;;;;;;;;5092217;28;20447;-79
2022/04/06 04:58:58;;;;;;;6.33;5.83;;;;;;;;;;5092496;28;20475;-77
2022/04/06 05:01:25;;;;;;;6.30;5.80;;;;;;;;;;5092967;28;20450;-77
2022/04/06 05:03:54;;;;;;;6.40;5.97;;;;;;;;;;5093168;28;20477;-77
2022/04/06 05:06:21;;;;;;;6.57;5.97;;;;;;;;;;5092972;28;20447;-77
2022/04/06 05:08:48;;;;;;;6.30;5.90;;;;;;;;;;5093074;28;20500;-78
2022/04/06 05:11:15;;;;;;;7.00;6.40;;;;;;;;;;5092300;28;21000;-79
2022/04/06 05:13:42;;;;;;;7.30;6.60;;;;;;;;;;5092185;28;20478;-79
2022/04/06 05:16:09;;;;;;;7.07;6.43;;;;;;;;;;5092768;28;20440;-77
2022/04/06 05:18:37;;;;;;;6.13;5.63;;;;;;;;;;5092502;28;20521;-78
2022/04/06 05:21:07;;;;;;;5.90;5.50;;;;;;;;;;5092485;28;20794;-79
2022/04/06 05:23:34;;;;;;;6.30;5.80;;;;;;;;;;5091576;28;20444;-78
2022/04/06 05:26:01;;;;;;;7.13;6.23;;;;;;;;;;5097013;28;20428;-77
2022/04/06 05:28:28;;;;;;;7.27;6.70;;;;;;;;;;5094572;28;20440;-76
2022/04/06 05:30:55;;;;;;;7.40;6.70;;;;;;;;;;5092235;28;20476;-78
2022/04/06 05:33:22;;;;;;;6.80;6.27;;;;;;;;;;5092764;28;20447;-77
2022/04/06 05:35:49;;;;;;;6.77;6.23;;;;;;;;;;5095970;28;20444;-77
2022/04/06 05:38:18;;;;;;;7.83;7.17;;;;;;;;;;5098519;28;20467;-78
2022/04/06 05:40:45;;;;;;;7.40;6.80;;;;;;;;;;5095811;28;20661;-78
2022/04/06 05:43:13;;;;;;;7.53;6.83;;;;;;;;;;5092585;28;21170;-78
2022/04/06 05:45:40;;;;;;;7.33;6.67;;;;;;;;;;5092976;28;20463;-77
2022/04/06 05:48:07;;;;;;;7.90;7.20;;;;;;;;;;5093598;28;20435;-79
2022/04/06 05:50:34;;;;;;;8.67;6.13;;;;;;;;;;5093449;28;20428;-79
2022/04/06 05:53:01;;;;;;;6.70;6.10;;;;;;;;;;5092074;28;20993;-77
2022/04/06 05:55:30;;;;;;;7.13;6.13;;;;;;;;;;5092138;28;21011;-77
2022/04/06 05:57:57;;;;;;;8.03;7.43;;;;;;;;;;5091395;28;20504;-77
2022/04/06 06:00:24;;;;;;;9.57;8.77;;;;;;;;;;5091838;28;20816;-77
2022/04/06 06:02:51;;;;;;;14.83;13.47;;;;;;;;;;5091482;28;20462;-77
2022/04/06 06:05:18;;;;;;;10.10;9.30;;;;;;;;;;5088317;28;20555;-78
2022/04/06 06:07:45;;;;;;;14.23;13.03;;;;;;;;;;5077119;28;20451;-77
2022/04/06 06:10:12;;;;;;;8.03;7.43;;;;;;;;;;5075409;28;20441;-79
2022/04/06 06:12:41;;;;;;;9.80;8.43;;;;;;;;;;5075823;28;20864;-77
2022/04/06 06:15:08;;;;;;;8.60;7.80;;;;;;;;;;5075949;28;20465;-77
2022/04/06 06:17:37;;;;;;;9.27;8.40;;;;;;;;;;5077957;28;20448;-77
2022/04/06 06:20:05;;;;;;;8.37;7.67;;;;;;;;;;5076283;28;20488;-79
2022/04/06 06:22:32;;;;;;;8.43;7.73;;;;;;;;;;5075789;28;21014;-76
2022/04/06 06:24:59;;;;;;;8.10;7.40;;;;;;;;;;5076339;28;20472;-77
2022/04/06 06:27:26;;;;;;;9.07;8.27;;;;;;;;;;5078792;28;20440;-76
2022/04/06 06:29:54;;;;;;;7.90;7.30;;;;;;;;;;5079236;28;20486;-77
2022/04/06 06:32:21;;;;;;;8.03;7.03;;;;;;;;;;5079505;28;20494;-78
2022/04/06 06:34:48;;;;;;;7.80;7.20;;;;;;;;;;5078413;28;20463;-78
2022/04/06 06:37:15;;;;;;;9.10;8.30;;;;;;;;;;5083977;28;20448;-76
2022/04/06 06:39:43;;;;;;;11.90;9.20;;;;;;;;;;5084787;28;20475;-76
2022/04/06 06:42:10;;;;;;;10.23;9.30;;;;;;;;;;5085948;28;20999;-78
2022/04/06 06:44:37;;;;;;;8.47;7.77;;;;;;;;;;5083984;28;20452;-77
2022/04/06 06:47:06;;;;;;;8.30;7.60;;;;;;;;;;5084515;28;20924;-77
2022/04/06 06:49:33;;;;;;;8.20;7.50;;;;;;;;;;5081162;28;20448;-79
2022/04/06 06:52:00;;;;;;;8.07;7.37;;;;;;;;;;5076099;28;20445;-78
2022/04/06 06:54:48;;;;;;;8.03;7.33;;;;;;;;;;5079708;28;20510;-80
2022/04/06 06:57:15;;;;;;;7.87;7.27;;;;;;;;;;5084439;28;20453;-79
2022/04/06 06:59:42;;;;;;;8.10;7.43;;;;;;;;;;5080710;28;20476;-80
2022/04/06 07:02:11;;;;;;;8.00;7.40;;;;;;;;;;5081506;28;20449;-80
2022/04/06 07:04:38;;;;;;;7.73;7.13;;;;;;;;;;5081248;28;20469;-78
2022/04/06 07:07:05;;;;;;;8.20;7.50;;;;;;;;;;5097014;28;20972;-77
2022/04/06 07:09:32;;;;;;;8.43;7.63;;;;;;;;;;5098809;28;20436;-77
2022/04/06 07:11:59;;;;;;;8.17;7.37;;;;;;;;;;5100794;28;20443;-78
2022/04/06 07:14:26;;;;;;;7.13;6.50;;;;;;;;;;5099789;28;20994;-77
2022/04/06 07:16:54;;;;;;;7.07;6.50;;;;;;;;;;5096898;28;20987;-77
2022/04/06 07:19:22;;;;;;;6.73;6.13;;;;;;;;;;5100025;28;20856;-78
2022/04/06 07:21:49;;;;;;;6.40;6.00;;;;;;;;;;5102308;28;20443;-79
2022/04/06 07:24:17;;;;;;;7.20;6.60;;;;;;;;;;5080876;28;20988;-77
2022/04/06 07:26:44;;;;;;;7.00;6.40;;;;;;;;;;5098501;28;20443;-77
2022/04/06 07:29:14;;;;;;;6.70;6.10;;;;;;;;;;5093403;28;20441;-77
2022/04/06 07:31:42;;;;;;;6.30;5.80;;;;;;;;;;5088590;28;20452;-79
2022/04/06 07:34:09;;;;;;;5.60;5.20;;;;;;;;;;5088314;28;20448;-77
2022/04/06 07:36:37;;;;;;;5.57;5.17;;;;;;;;;;5083778;28;20455;-79
2022/04/06 07:39:05;;;;;;;5.20;4.80;;;;;;;;;;5073802;28;21018;-77
2022/04/06 07:41:32;;;;;;;4.20;4.00;;;;;;;;;;5074219;28;20449;-78
2022/04/06 07:43:59;;;;;;;4.30;3.90;;;;;;;;;;5074382;28;20487;-79
2022/04/06 07:46:26;;;;;;;5.10;4.70;;;;;;;;;;5074325;28;20441;-79
2022/04/06 07:48:53;;;;;;;4.40;4.10;;;;;;;;;;5074308;28;20444;-78
2022/04/06 07:51:20;;;;;;;4.10;3.80;;;;;;;;;;5074003;28;20477;-79
2022/04/06 07:53:49;;;;;;;4.50;4.10;;;;;;;;;;5074392;28;20514;-77
2022/04/06 07:56:16;;;;;;;3.87;3.57;;;;;;;;;;5074768;28;20441;-79
2022/04/06 07:58:43;;;;;;;3.03;2.83;;;;;;;;;;5073167;28;20433;-77
2022/04/06 08:01:10;;;;;;;3.37;3.17;;;;;;;;;;5073536;28;20474;-78
2022/04/06 08:03:37;;;;;;;3.87;3.57;;;;;;;;;;5073576;28;20457;-77
2022/04/06 08:06:04;;;;;;;4.73;3.53;;;;;;;;;;5083217;28;20734;-77
2022/04/06 08:08:31;;;;;;;3.30;3.10;;;;;;;;;;5094004;28;20445;-78
2022/04/06 08:11:00;;;;;;;3.47;3.10;;;;;;;;;;5093335;28;20448;-77
2022/04/06 08:13:27;;;;;;;3.60;2.63;;;;;;;;;;5093225;28;20452;-77
2022/04/06 08:15:54;;;;;;;2.97;2.57;;;;;;;;;;5093396;28;20455;-78
2022/04/06 08:18:22;;;;;;;2.60;2.40;;;;;;;;;;5096434;28;20815;-77
2022/04/06 08:20:49;;;;;;;2.60;2.40;;;;;;;;;;5090399;28;20471;-77
2022/04/06 08:23:17;;;;;;;4.03;2.00;;;;;;;;;;5093743;28;21002;-79
2022/04/06 08:25:44;;;;;;;2.20;2.10;;;;;;;;;;5095267;28;20479;-77
2022/04/06 08:28:12;;;;;;;2.10;2.00;;;;;;;;;;5095988;28;20475;-78
2022/04/06 08:30:41;;;;;;;1.60;1.50;;;;;;;;;;5091792;28;21115;-79
2022/04/06 08:33:09;;;;;;;1.47;1.47;;;;;;;;;;5095438;28;20448;-78
2022/04/06 08:35:36;;;;;;;1.43;1.43;;;;;;;;;;5075681;28;20477;-78
2022/04/06 08:38:04;;;;;;;2.47;2.10;;;;;;;;;;5076030;28;20472;-79
2022/04/06 08:40:32;;;;;;;1.53;1.53;;;;;;;;;;5074137;28;21061;-79
2022/04/06 08:43:00;;;;;;;1.20;1.20;;;;;;;;;;5074282;28;20457;-77
2022/04/06 08:45:28;;;;;;;1.33;1.17;;;;;;;;;;5073659;28;20588;-78
2022/04/06 08:47:56;;;;;;;1.17;1.17;;;;;;;;;;5075104;28;20502;-78
2022/04/06 08:50:24;;;;;;;1.00;1.00;;;;;;;;;;5075011;28;20441;-78
2022/04/06 08:52:52;;;;;;;1.23;1.13;;;;;;;;;;5074334;28;20436;-77
2022/04/06 08:55:19;;;;;;;0.90;0.90;;;;;;;;;;5073913;28;20467;-78
2022/04/06 08:57:46;;;;;;;2.97;2.77;;;;;;;;;;5073383;28;20440;-78
2022/04/06 09:00:15;;;;;;;0.93;0.93;;;;;;;;;;5085154;28;20479;-79
2022/04/06 09:02:44;;;;;;;1.20;1.10;;;;;;;;;;5084938;28;20447;-78
2022/04/06 09:05:11;;;;;;;0.93;0.93;;;;;;;;;;5080435;28;20464;-77
2022/04/06 09:07:39;;;;;;;1.07;1.00;;;;;;;;;;5095830;28;20432;-77
2022/04/06 09:10:07;;;;;;;0.97;0.90;;;;;;;;;;5095724;28;20444;-77
2022/04/06 09:12:34;;;;;;;0.90;0.90;;;;;;;;;;5094946;28;20512;-77
2022/04/06 09:15:05;;;;;;;0.90;0.90;;;;;;;;;;5095661;28;20464;-78
2022/04/06 09:17:32;;;;;;;1.00;1.00;;;;;;;;;;5095246;28;20526;-78
2022/04/06 09:20:03;;;;;;;1.10;1.10;;;;;;;;;;5088351;28;20471;-78
2022/04/06 09:22:30;;;;;;;1.33;0.80;;;;;;;;;;5086229;28;20445;-78
2022/04/06 09:25:00;;;;;;;1.00;1.00;;;;;;;;;;5094373;28;20463;-79
2022/04/06 09:27:31;;;;;;;1.90;1.80;;;;;;;;;;5077596;28;20449;-78
2022/04/06 09:29:58;;;;;;;1.17;1.07;;;;;;;;;;5085133;28;20478;-76
2022/04/06 09:32:25;;;;;;;1.30;1.30;;;;;;;;;;5094345;28;20471;-78
2022/04/06 09:34:52;;;;;;;1.40;1.30;;;;;;;;;;5095955;28;20452;-77
2022/04/06 09:37:24;;;;;;;0.80;0.80;;;;;;;;;;5093403;28;20444;-80
2022/04/06 09:39:51;;;;;;;1.00;0.90;;;;;;;;;;5092193;28;21115;-77
2022/04/06 09:42:22;;;;;;;0.87;0.87;;;;;;;;;;5099203;28;20444;-77
2022/04/06 09:47:40;;;;;;;0.80;0.80;;;;;;;;;;5093327;28;20789;-79
2022/04/06 09:50:12;;;;;;;0.97;0.80;;;;;;;;;;5095094;28;20588;-77
2022/04/06 09:52:40;;;;;;;1.20;1.00;;;;;;;;;;5095839;28;20459;-78
2022/04/06 09:55:09;;;;;;;1.00;1.00;;;;;;;;;;5094817;28;20467;-77
2022/04/06 09:57:40;;;;;;;0.93;0.60;;;;;;;;;;5094253;28;20455;-78
2022/04/06 10:00:08;;;;;;;0.60;0.60;;;;;;;;;;5095121;28;20503;-80
2022/04/06 10:02:36;;;;;;;0.70;0.70;;;;;;;;;;5094438;28;20471;-78
2022/04/06 10:05:03;;;;;;;0.70;0.70;;;;;;;;;;5092526;28;20533;-78
2022/04/06 10:07:31;;;;;;;0.60;0.60;;;;;;;;;;5092047;28;20988;-78
2022/04/06 10:10:01;;;;;;;0.60;0.60;;;;;;;;;;5092800;28;20482;-77
2022/04/06 10:12:28;;;;;;;0.60;0.60;;;;;;;;;;5092512;28;20440;-77
2022/04/06 10:14:55;;;;;;;1.17;0.73;;;;;;;;;;5093852;28;20467;-77
2022/04/06 10:17:22;;;;;;;0.60;0.60;;;;;;;;;;5094044;28;20490;-76
2022/04/06 10:19:52;;;;;;;0.60;0.60;;;;;;;;;;5093349;28;20480;-78
2022/04/06 10:22:21;;;;;;;0.60;0.60;;;;;;;;;;5094541;28;20454;-77
2022/04/06 10:24:53;;;;;;;0.50;0.50;;;;;;;;;;5094709;28;20493;-78
2022/04/06 10:27:25;;;;;;;0.70;0.70;;;;;;;;;;5092980;28;20505;-78
2022/04/06 10:30:12;;;;;;;0.53;0.53;;;;;;;;;;5091587;28;20447;-80
2022/04/06 10:32:40;;;;;;;1.13;0.50;;;;;;;;;;5092442;28;20439;-76
2022/04/06 10:35:20;;;;;;;0.67;0.60;;;;;;;;;;5092476;28;20467;-77
2022/04/06 10:37:51;;;;;;;0.60;0.60;;;;;;;;;;5094794;28;20454;-78
2022/04/06 10:40:18;;;;;;;0.70;0.70;;;;;;;;;;5093344;28;20573;-78
2022/04/06 10:42:47;;;;;;;0.60;0.60;;;;;;;;;;5089648;28;20492;-78
2022/04/06 10:45:32;;;;;;;0.60;0.57;;;;;;;;;;5088020;28;20494;-77
2022/04/06 10:48:12;;;;;;;0.70;0.70;;;;;;;;;;5084759;28;20943;-79
2022/04/06 10:50:39;;;;;;;0.53;0.53;;;;;;;;;;5089356;28;20780;-79
2022/04/06 10:53:25;;;;;;;0.40;0.40;;;;;;;;;;5074285;28;20459;-78
2022/04/06 10:55:57;;;;;;;1.23;0.70;;;;;;;;;;5091865;28;20474;-77
2022/04/06 10:58:26;;;;;;;0.50;0.50;;;;;;;;;;5093737;28;20478;-79
2022/04/06 11:01:09;;;;;;;0.57;0.57;;;;;;;;;;5080184;28;20467;-77
2022/04/06 11:03:38;;;;;;;1.30;0.67;;;;;;;;;;5096726;28;20466;-78
2022/04/06 11:06:05;;;;;;;0.50;0.50;;;;;;;;;;5089709;28;20435;-78
2022/04/06 11:11:43;;;;;;;0.70;0.70;;;;;;;;;;5095187;28;20415;-80
2022/04/06 11:14:12;;;;;;;0.70;0.70;;;;;;;;;;5094468;28;20799;-78
2022/04/06 11:16:42;;;;;;;0.83;0.83;;;;;;;;;;5089659;28;20555;-79
2022/04/06 11:19:09;;;;;;;0.70;0.70;;;;;;;;;;5088279;28;20444;-79
2022/04/06 11:21:36;;;;;;;0.60;0.60;;;;;;;;;;5093514;28;20471;-78
2022/04/06 11:24:03;;;;;;;0.87;0.70;;;;;;;;;;5096504;28;20468;-81
2022/04/06 11:26:38;;;;;;;2.00;0.50;;;;;;;;;;5096974;28;21060;-80
2022/04/06 11:29:05;;;;;;;0.70;0.70;;;;;;;;;;5097274;28;20446;-76
2022/04/06 11:31:34;;;;;;;0.67;0.67;;;;;;;;;;5096593;28;20447;-79
2022/04/06 11:34:01;;;;;;;0.60;0.60;;;;;;;;;;5094796;28;20463;-77
2022/04/06 11:36:29;;;;;;;0.70;0.70;;;;;;;;;;5096308;28;20447;-77
2022/04/06 11:38:56;;;;;;;1.07;0.67;;;;;;;;;;5097169;28;20470;-77
2022/04/06 11:41:23;;;;;;;0.50;0.50;;;;;;;;;;5098698;28;20488;-79
2022/04/06 11:43:52;;;;;;;0.70;0.70;;;;;;;;;;5097721;28;20468;-79
2022/04/06 11:46:19;;;;;;;0.60;0.60;;;;;;;;;;5096000;28;20612;-80
2022/04/06 11:48:47;;;;;;;0.90;0.80;;;;;;;;;;5097305;28;20447;-79
2022/04/06 11:51:15;;;;;;;1.57;0.50;;;;;;;;;;5097709;28;20436;-77
2022/04/06 11:53:43;;;;;;;0.93;0.70;;;;;;;;;;5096015;28;21156;-77
2022/04/06 11:56:10;;;;;;;0.73;0.73;;;;;;;;;;5093328;28;20452;-77
2022/04/06 11:58:37;;;;;;;0.67;0.67;;;;;;;;;;5082153;28;20444;-77
2022/04/06 12:01:05;;;;;;;0.50;0.50;;;;;;;;;;5075193;28;20512;-77
2022/04/06 12:03:33;;;;;;;0.93;0.87;;;;;;;;;;5074266;28;20951;-76
2022/04/06 12:06:02;;;;;;;1.70;0.60;;;;;;;;;;5081820;28;20454;-77
2022/04/06 12:08:31;;;;;;;0.63;0.63;;;;;;;;;;5093799;28;20443;-76
2022/04/06 12:10:58;;;;;;;0.70;0.70;;;;;;;;;;5095295;28;20443;-78
2022/04/06 12:13:27;;;;;;;1.63;0.50;;;;;;;;;;5093478;28;20455;-77
2022/04/06 12:15:55;;;;;;;0.60;0.60;;;;;;;;;;5093834;28;20436;-78
2022/04/06 12:18:22;;;;;;;0.50;0.50;;;;;;;;;;5093451;28;20517;-77
2022/04/06 12:20:50;;;;;;;0.50;0.50;;;;;;;;;;5094346;28;20478;-77
2022/04/06 12:23:19;;;;;;;0.63;0.63;;;;;;;;;;5094193;28;20467;-77
2022/04/06 12:25:47;;;;;;;0.50;0.50;;;;;;;;;;5095265;28;20545;-77
2022/04/06 12:28:16;;;;;;;0.70;0.70;;;;;;;;;;5096413;28;20444;-78
2022/04/06 12:30:57;;;;;;;0.53;0.53;;;;;;;;;;5094857;28;20798;-77
2022/04/06 12:33:37;;;;;;;0.53;0.53;;;;;;;;;;5094662;28;20535;-78
2022/04/06 12:36:08;;;;;;;0.50;0.50;;;;;;;;;;5095674;28;20464;-76
2022/04/06 12:38:36;;;;;;;0.80;0.50;;;;;;;;;;5095568;28;20451;-77
2022/04/06 12:41:04;;;;;;;0.70;0.70;;;;;;;;;;5092767;28;20864;-77
2022/04/06 12:43:31;;;;;;;0.53;0.53;;;;;;;;;;5093447;28;20856;-77
2022/04/06 12:45:58;;;;;;;1.27;0.70;;;;;;;;;;5092656;28;20440;-79
2022/04/06 12:48:25;;;;;;;0.93;0.60;;;;;;;;;;5092767;28;20926;-77
2022/04/06 12:50:52;;;;;;;1.57;0.50;;;;;;;;;;5092791;28;20484;-77
2022/04/06 12:53:20;;;;;;;0.60;0.60;;;;;;;;;;5092263;28;20931;-76
2022/04/06 12:55:50;;;;;;;0.70;0.70;;;;;;;;;;5092875;28;20926;-77
2022/04/06 12:58:17;;;;;;;0.50;0.50;;;;;;;;;;5093409;28;20447;-76
2022/04/06 13:00:45;;;;;;;0.80;0.77;;;;;;;;;;5092140;28;20475;-77
2022/04/06 13:03:12;;;;;;;0.70;0.70;;;;;;;;;;5091992;28;20448;-77
2022/04/06 13:05:39;;;;;;;1.23;0.50;;;;;;;;;;5102761;28;20475;-75
2022/04/06 13:08:06;;;;;;;1.17;0.60;;;;;;;;;;5092449;28;20444;-76
2022/04/06 13:10:34;;;;;;;0.60;0.60;;;;;;;;;;5091952;28;20425;-76
2022/04/06 13:13:03;;;;;;;1.30;0.80;;;;;;;;;;5091171;28;20464;-76
2022/04/06 13:15:32;;;;;;;0.60;0.50;;;;;;;;;;5072759;28;20552;-77
2022/04/06 13:17:59;;;;;;;0.50;0.50;;;;;;;;;;5073731;28;20440;-77
2022/04/06 13:20:27;;;;;;;1.43;0.50;;;;;;;;;;5082806;28;20444;-77
2022/04/06 13:22:54;;;;;;;0.70;0.70;;;;;;;;;;5082171;28;20436;-77
2022/04/06 13:25:21;;;;;;;0.50;0.50;;;;;;;;;;5071894;28;20464;-77
2022/04/06 13:27:49;;;;;;;0.60;0.60;;;;;;;;;;5071646;28;20445;-76
2022/04/06 13:30:18;;;;;;;1.07;0.60;;;;;;;;;;5071699;28;20429;-78
2022/04/06 13:32:46;;;;;;;0.53;0.53;;;;;;;;;;5071606;28;20863;-77
2022/04/06 13:35:13;;;;;;;0.70;0.60;;;;;;;;;;5071843;28;20491;-77
2022/04/06 13:37:41;;;;;;;0.60;0.50;;;;;;;;;;5071298;28;20445;-77
2022/04/06 13:40:08;;;;;;;2.00;0.90;;;;;;;;;;5071702;28;20928;-77
2022/04/06 13:42:35;;;;;;;1.23;0.63;;;;;;;;;;5071101;28;20629;-78
2022/04/06 13:45:04;;;;;;;0.87;0.40;;;;;;;;;;5072054;28;20464;-78
2022/04/06 13:47:32;;;;;;;0.50;0.40;;;;;;;;;;5071715;28;20806;-77
2022/04/06 13:49:59;;;;;;;0.80;0.80;;;;;;;;;;5072749;28;20525;-77
2022/04/06 13:52:26;;;;;;;0.67;0.67;;;;;;;;;;5071323;28;20449;-77
2022/04/06 13:54:53;;;;;;;0.83;0.80;;;;;;;;;;5071091;28;20507;-77
2022/04/06 13:57:20;;;;;;;0.87;0.80;;;;;;;;;;5071768;28;20543;-76
2022/04/06 13:59:47;;;;;;;0.67;0.67;;;;;;;;;;5071711;28;20448;-77
2022/04/06 14:02:16;;;;;;;0.97;0.70;;;;;;;;;;5071676;28;20962;-77
2022/04/06 14:04:45;;;;;;;0.60;0.60;;;;;;;;;;5070678;28;20980;-77
2022/04/06 14:07:12;;;;;;;0.50;0.50;;;;;;;;;;5091253;28;20447;-78
2022/04/06 14:09:39;;;;;;;1.10;1.00;;;;;;;;;;5092574;28;20440;-76
2022/04/06 14:12:06;;;;;;;0.70;0.70;;;;;;;;;;5096727;28;20440;-76
2022/04/06 14:14:34;;;;;;;1.90;0.53;;;;;;;;;;5096802;28;20529;-76
2022/04/06 14:17:01;;;;;;;0.60;0.60;;;;;;;;;;5097365;28;20452;-76
2022/04/06 14:19:28;;;;;;;0.50;0.50;;;;;;;;;;5097181;28;20861;-77
2022/04/06 14:21:56;;;;;;;1.53;0.80;;;;;;;;;;5096238;28;20476;-77
2022/04/06 14:24:24;;;;;;;0.50;0.50;;;;;;;;;;5092039;28;20471;-77
2022/04/06 14:26:51;;;;;;;0.87;0.60;;;;;;;;;;5091921;28;20871;-76
2022/04/06 14:29:18;;;;;;;0.40;0.40;;;;;;;;;;5093948;28;20474;-77
2022/04/06 14:31:46;;;;;;;0.83;0.70;;;;;;;;;;5095392;28;20489;-77
2022/04/06 14:34:13;;;;;;;0.80;0.80;;;;;;;;;;5096441;28;20497;-77
2022/04/06 14:36:41;;;;;;;0.73;0.73;;;;;;;;;;5095839;28;20475;-78
2022/04/06 14:39:10;;;;;;;1.07;0.70;;;;;;;;;;5096920;28;20875;-77
2022/04/06 14:41:38;;;;;;;1.23;0.60;;;;;;;;;;5095566;28;20476;-78
2022/04/06 14:44:05;;;;;;;0.70;0.70;;;;;;;;;;5094704;28;20525;-77
2022/04/06 14:46:32;;;;;;;0.60;0.60;;;;;;;;;;5097011;28;20501;-77
2022/04/06 14:48:59;;;;;;;0.70;0.70;;;;;;;;;;5097096;28;20451;-77
2022/04/06 14:51:26;;;;;;;0.90;0.90;;;;;;;;;;5097122;28;20947;-77
2022/04/06 14:53:53;;;;;;;0.67;0.67;;;;;;;;;;5095059;28;20463;-77
2022/04/06 14:56:21;;;;;;;1.07;0.80;;;;;;;;;;5096681;28;20454;-78
2022/04/06 14:58:48;;;;;;;0.70;0.70;;;;;;;;;;5095147;28;20458;-79